Time;durP1;ratioP1;P1;durP2;ratioP2;P2;SDS_P1;SDS_P2;PMS_P1;PMS_P2;Temp;Humidity;BMP_temperature;BMP_pressure;BME280_temperature;BME280_humidity;BME280_pressure;Samples;Min_cycle;Max_cycle;Signal;HPM_P1;HPM_P2
2022/06/22 00:00:15;;;;;;;1.13;1.13;;;;;;;19.92;84.39;95122.94;4327693;32;20197;-60
2022/06/22 00:02:45;;;;;;;1.17;1.17;;;;;;;19.99;83.84;95133.81;4339499;32;20181;-60
2022/06/22 00:05:23;;;;;;;0.90;0.90;;;;;;;19.87;84.10;95138.25;4341828;32;20255;-59
2022/06/22 00:07:58;;;;;;;1.00;0.97;;;;;;;19.87;83.48;95132.88;4335402;32;20331;-60
2022/06/22 00:11:11;;;;;;;1.23;1.23;;;;;;;19.88;83.56;95117.50;4356691;32;20267;-60
2022/06/22 00:13:38;;;;;;;1.37;1.27;;;;;;;19.78;83.02;95104.59;4335763;32;20307;-60
2022/06/22 00:16:18;;;;;;;0.70;0.70;;;;;;;19.93;82.51;95109.13;4341102;32;20204;-60
2022/06/22 00:18:50;;;;;;;0.90;0.90;;;;;;;19.99;82.16;95098.81;4326551;32;20205;-60
2022/06/22 00:21:36;;;;;;;1.47;1.40;;;;;;;20.03;82.20;95099.66;4341647;32;20197;-60
2022/06/22 00:24:33;;;;;;;0.93;0.93;;;;;;;20.13;83.76;95091.00;4323044;32;20190;-61
2022/06/22 00:27:27;;;;;;;0.87;0.87;;;;;;;20.24;84.14;95078.47;4335238;32;20263;-60
2022/06/22 00:30:27;;;;;;;0.97;0.97;;;;;;;20.10;83.54;95072.84;4326446;32;20243;-60
2022/06/22 00:33:13;;;;;;;1.43;1.33;;;;;;;20.10;84.94;95070.16;4312901;32;20256;-60
2022/06/22 00:36:07;;;;;;;0.90;0.90;;;;;;;20.13;85.50;95056.75;4351779;32;20189;-60
2022/06/22 00:38:33;;;;;;;1.00;1.00;;;;;;;20.22;85.10;95045.72;4342842;32;20181;-61
2022/06/22 00:41:25;;;;;;;1.10;1.10;;;;;;;20.18;84.22;95044.88;4348111;32;20216;-61
2022/06/22 00:43:52;;;;;;;1.07;1.07;;;;;;;20.23;84.80;95036.50;4306250;32;20294;-61
2022/06/22 00:46:48;;;;;;;1.70;1.60;;;;;;;20.32;84.49;95037.03;4304641;32;20447;-61
2022/06/22 00:49:26;;;;;;;1.07;0.97;;;;;;;20.25;85.09;95028.84;4336652;32;20207;-60
2022/06/22 00:51:53;;;;;;;1.23;1.23;;;;;;;20.18;85.60;95015.25;4328729;32;20193;-61
2022/06/22 00:54:26;;;;;;;1.03;1.03;;;;;;;20.09;85.76;95025.50;4337578;32;20307;-61
2022/06/22 00:57:19;;;;;;;0.97;0.97;;;;;;;20.20;85.66;95031.81;4344481;32;20234;-62
2022/06/22 01:00:01;;;;;;;0.77;0.77;;;;;;;20.18;86.19;95015.25;4315928;32;20193;-62
2022/06/22 01:03:20;;;;;;;1.20;1.20;;;;;;;20.16;85.95;95014.84;4303567;32;20220;-61
2022/06/22 01:06:11;;;;;;;1.00;1.00;;;;;;;19.95;87.59;94999.13;4231766;33;20203;-61
2022/06/22 01:09:05;;;;;;;0.90;0.90;;;;;;;20.05;87.35;95008.50;4266795;33;20292;-61
2022/06/22 01:14:42;;;;;;;9.17;1.20;;;;;;;20.07;87.31;95007.00;4237271;33;20343;-61
2022/06/22 01:17:28;;;;;;;1.43;1.43;;;;;;;20.07;87.14;95007.00;4256591;33;20198;-61
2022/06/22 01:20:19;;;;;;;0.53;0.53;;;;;;;20.09;87.00;95009.34;4252574;33;20308;-61
2022/06/22 01:23:28;;;;;;;0.80;0.80;;;;;;;20.14;87.17;94984.81;4253431;33;20197;-61
2022/06/22 01:26:32;;;;;;;1.50;1.20;;;;;;;20.13;86.78;94988.63;4259726;33;20182;-61
2022/06/22 01:29:07;;;;;;;1.10;1.10;;;;;;;20.13;87.02;94988.63;4241153;33;20212;-60
2022/06/22 01:31:35;;;;;;;1.03;1.03;;;;;;;20.22;86.53;94992.63;4240340;33;20241;-61
2022/06/22 01:34:01;;;;;;;1.17;1.07;;;;;;;20.15;86.63;94991.75;4258485;33;20191;-60
2022/06/22 01:36:32;;;;;;;1.43;1.40;;;;;;;20.04;86.98;94986.19;4233197;33;20241;-60
2022/06/22 01:38:58;;;;;;;0.90;0.90;;;;;;;20.07;86.94;94992.78;4256938;33;20460;-60
2022/06/22 01:41:57;;;;;;;1.70;1.60;;;;;;;19.98;87.30;94981.47;4334278;32;20189;-60
2022/06/22 01:44:35;;;;;;;1.47;1.37;;;;;;;20.03;86.97;94960.38;4341991;32;20207;-60
2022/06/22 01:47:40;;;;;;;1.43;1.43;;;;;;;20.12;86.64;94960.94;4310673;32;20263;-62
2022/06/22 01:50:22;;;;;;;1.73;1.63;;;;;;;20.04;87.03;94964.63;4312171;32;20213;-61
2022/06/22 01:53:19;;;;;;;1.37;1.37;;;;;;;20.14;86.63;94969.44;4340721;32;23535;-61
2022/06/22 01:56:16;;;;;;;1.13;1.13;;;;;;;20.13;86.61;94956.31;4322608;32;20205;-60
2022/06/22 01:59:12;;;;;;;1.47;1.47;;;;;;;20.10;86.60;94951.66;4332054;32;20194;-61
2022/06/22 02:02:01;;;;;;;1.37;1.37;;;;;;;20.19;86.51;94960.22;4315073;32;20205;-62
2022/06/22 02:05:30;;;;;;;1.33;1.30;;;;;;;20.12;86.57;94946.69;4330318;32;20249;-61
2022/06/22 02:08:30;;;;;;;1.33;1.33;;;;;;;20.16;86.70;94934.03;4251348;33;20272;-61
2022/06/22 02:11:10;;;;;;;0.70;0.70;;;;;;;20.09;86.75;94939.31;4323486;33;20216;-60
2022/06/22 02:13:57;;;;;;;1.13;1.13;;;;;;;20.13;86.37;94938.25;4322479;32;20190;-61
2022/06/22 02:16:48;;;;;;;2.00;1.73;;;;;;;20.24;86.14;94931.06;4328345;32;20185;-60
2022/06/22 02:19:17;;;;;;;1.27;1.23;;;;;;;20.18;86.33;94942.50;4312907;32;20189;-60
2022/06/22 02:21:54;;;;;;;1.00;1.00;;;;;;;20.21;86.12;94936.41;4299540;33;20222;-60
2022/06/22 02:24:38;;;;;;;0.77;0.77;;;;;;;20.19;86.29;94947.53;4314116;32;20200;-60
2022/06/22 02:27:13;;;;;;;1.53;1.53;;;;;;;20.20;86.21;94946.41;4319515;32;20193;-60
2022/06/22 02:29:51;;;;;;;0.83;0.83;;;;;;;20.11;86.46;94959.38;4322438;32;20189;-61
2022/06/22 02:32:25;;;;;;;2.23;2.13;;;;;;;20.11;86.55;94963.97;4309248;32;20248;-60
2022/06/22 02:34:53;;;;;;;1.17;1.17;;;;;;;20.23;86.08;94969.94;4315384;33;20288;-60
2022/06/22 02:37:46;;;;;;;1.27;1.27;;;;;;;20.18;86.15;94953.28;4313027;32;20354;-60
2022/06/22 02:40:22;;;;;;;1.57;1.47;;;;;;;20.24;86.24;94965.31;4300409;32;20244;-62
2022/06/22 02:45:34;;;;;;;0.67;0.67;;;;;;;20.16;86.33;94955.59;4320324;32;20209;-61
2022/06/22 02:48:29;;;;;;;0.90;0.90;;;;;;;20.05;86.72;94949.25;4322657;32;20193;-60
2022/06/22 02:51:23;;;;;;;2.53;0.87;;;;;;;20.05;87.06;94943.88;4243739;33;20183;-60
2022/06/22 02:53:52;;;;;;;1.07;1.03;;;;;;;20.07;86.99;94933.50;4324529;32;20274;-61
2022/06/22 02:56:27;;;;;;;1.50;0.63;;;;;;;20.04;87.00;94928.84;4324932;32;20248;-60
2022/06/22 02:58:53;;;;;;;0.90;0.80;;;;;;;20.16;86.76;94925.97;4302727;33;20198;-60
2022/06/22 03:01:22;;;;;;;0.83;0.83;;;;;;;20.09;86.69;94929.31;4324386;32;20285;-60
2022/06/22 03:03:56;;;;;;;1.50;1.33;;;;;;;19.99;87.31;94929.94;4329006;32;20197;-60
2022/06/22 03:06:29;;;;;;;1.10;1.10;;;;;;;20.06;86.81;94923.88;4329666;32;20307;-61
2022/06/22 03:08:59;;;;;;;1.30;1.30;;;;;;;20.09;87.10;94931.25;4338185;32;20216;-60
2022/06/22 03:11:25;;;;;;;1.53;1.53;;;;;;;20.10;87.20;94930.88;4305418;32;20201;-60
2022/06/22 03:14:17;;;;;;;1.70;1.30;;;;;;;20.05;87.42;94927.72;4314619;32;20220;-60
2022/06/22 03:16:49;;;;;;;8.50;1.00;;;;;;;20.10;87.03;94919.31;4336377;32;20240;-61
2022/06/22 03:19:23;;;;;;;1.30;1.20;;;;;;;20.10;87.13;94927.41;4314203;32;20197;-60
2022/06/22 03:21:50;;;;;;;0.80;0.80;;;;;;;20.04;87.44;94936.94;4339246;32;23442;-60
2022/06/22 03:24:44;;;;;;;0.80;0.80;;;;;;;19.93;87.65;94934.09;4339459;32;20296;-61
2022/06/22 03:27:19;;;;;;;0.73;0.73;;;;;;;20.02;87.55;94923.03;4337649;32;20193;-61
2022/06/22 03:29:56;;;;;;;0.80;0.80;;;;;;;20.15;86.81;94922.50;4335774;32;20216;-61
2022/06/22 03:32:27;;;;;;;1.03;1.03;;;;;;;19.94;87.26;94926.78;4334462;32;20286;-60
2022/06/22 03:35:23;;;;;;;1.13;1.13;;;;;;;20.00;86.97;94931.47;4352129;32;20204;-61
2022/06/22 03:37:56;;;;;;;3.17;1.60;;;;;;;20.00;87.05;94931.47;4338072;32;20310;-61
2022/06/22 03:40:44;;;;;;;1.00;1.00;;;;;;;20.05;86.75;94927.72;4317698;32;20213;-61
2022/06/22 03:43:14;;;;;;;0.77;0.77;;;;;;;20.13;86.60;94924.00;4335940;32;20185;-60
2022/06/22 03:45:45;;;;;;;0.63;0.63;;;;;;;20.04;86.58;94932.31;4321495;32;20285;-60
2022/06/22 03:48:23;;;;;;;1.03;1.03;;;;;;;20.17;86.21;94944.44;4336249;32;20260;-60
2022/06/22 03:51:15;;;;;;;0.80;0.80;;;;;;;19.99;86.80;94948.78;4317550;32;20272;-60
2022/06/22 03:54:05;;;;;;;0.90;0.90;;;;;;;20.13;86.37;94948.22;4331162;32;20208;-60
2022/06/22 03:56:41;;;;;;;1.00;1.00;;;;;;;20.13;85.95;94945.53;4297857;32;20197;-60
2022/06/22 03:59:09;;;;;;;0.73;0.73;;;;;;;20.12;86.44;94949.38;4335750;32;20192;-60
2022/06/22 04:01:40;;;;;;;0.70;0.70;;;;;;;20.11;86.11;94950.50;4323216;32;20186;-61
2022/06/22 04:04:05;;;;;;;0.37;0.37;;;;;;;20.09;86.47;94944.72;4337059;32;20190;-60
2022/06/22 04:06:36;;;;;;;0.90;0.90;;;;;;;20.12;85.80;94941.28;4336886;32;20225;-60
2022/06/22 04:09:07;;;;;;;1.23;1.03;;;;;;;20.20;85.72;94940.22;4333720;32;20279;-60
2022/06/22 04:12:32;;;;;;;0.93;0.90;;;;;;;20.21;85.37;94939.09;4339732;32;20193;-61
2022/06/22 04:15:35;;;;;;;0.50;0.50;;;;;;;20.25;85.42;94937.22;4222648;33;20254;-60
2022/06/22 04:18:28;;;;;;;1.40;1.10;;;;;;;20.13;86.17;94942.84;4249397;33;20238;-60
2022/06/22 04:21:21;;;;;;;1.60;0.80;;;;;;;20.22;85.81;94948.72;4242871;33;20213;-60
2022/06/22 04:23:55;;;;;;;1.13;1.13;;;;;;;20.19;85.59;94955.63;4242118;33;20207;-60
2022/06/22 04:26:23;;;;;;;0.50;0.50;;;;;;;20.27;85.39;94953.03;4282295;33;20191;-60
2022/06/22 04:29:00;;;;;;;4.47;1.13;;;;;;;20.27;85.22;94950.34;4246405;33;20285;-60
2022/06/22 04:31:36;;;;;;;1.10;1.00;;;;;;;20.35;85.32;94963.56;4278368;33;20206;-60
2022/06/22 04:34:35;;;;;;;0.73;0.73;;;;;;;20.37;84.83;94955.16;4264302;33;20266;-61
2022/06/22 04:37:07;;;;;;;1.27;1.17;;;;;;;20.42;84.07;94954.81;4229140;33;20190;-63
2022/06/22 04:39:47;;;;;;;0.40;0.40;;;;;;;20.35;84.88;94947.41;4241233;33;20196;-60
2022/06/22 04:42:14;;;;;;;2.87;1.87;;;;;;;20.39;84.25;94950.91;4268985;32;20204;-61
2022/06/22 04:44:54;;;;;;;0.77;0.77;;;;;;;20.35;84.87;94946.63;4306152;32;20249;-61
2022/06/22 04:47:33;;;;;;;15.17;1.63;;;;;;;20.43;84.53;94943.66;4337389;32;20310;-61
2022/06/22 04:50:10;;;;;;;0.47;0.47;;;;;;;20.46;84.17;94944.84;4277037;32;20261;-64
2022/06/22 04:52:59;;;;;;;2.07;1.93;;;;;;;20.62;84.15;94950.06;4318294;32;20193;-61
2022/06/22 04:55:30;;;;;;;2.63;1.20;;;;;;;20.66;83.89;94956.28;4335528;32;20219;-61
2022/06/22 04:58:01;;;;;;;0.83;0.83;;;;;;;20.67;83.45;94964.00;4322204;32;20197;-61
2022/06/22 05:00:30;;;;;;;1.53;1.43;;;;;;;20.70;83.63;94960.56;4341595;32;20194;-62
2022/06/22 05:03:15;;;;;;;1.33;1.00;;;;;;;20.67;83.52;94974.00;4324804;32;20196;-61
2022/06/22 05:05:44;;;;;;;0.93;0.93;;;;;;;20.70;84.03;94973.28;4331824;32;20211;-60
2022/06/22 05:08:41;;;;;;;1.20;0.60;;;;;;;20.71;83.66;94982.91;4305626;32;20277;-61
2022/06/22 05:11:27;;;;;;;0.50;0.50;;;;;;;20.76;84.03;94985.31;4331298;32;20193;-63
2022/06/22 05:13:58;;;;;;;0.97;0.97;;;;;;;20.65;82.93;94987.06;4314509;32;20193;-62
2022/06/22 05:16:27;;;;;;;0.77;0.77;;;;;;;20.70;83.11;94989.44;4315537;32;20232;-62
2022/06/22 05:18:56;;;;;;;5.60;1.00;;;;;;;20.68;83.41;94995.22;4329672;32;20193;-62
2022/06/22 05:21:45;;;;;;;0.60;0.60;;;;;;;20.74;83.09;94996.44;4335853;32;20288;-62
2022/06/22 05:24:26;;;;;;;0.80;0.80;;;;;;;20.67;83.76;94990.19;4321886;32;20201;-62
2022/06/22 05:26:59;;;;;;;1.43;0.80;;;;;;;20.63;83.66;94984.75;4340406;32;20272;-63
2022/06/22 05:29:40;;;;;;;1.37;1.27;;;;;;;20.62;83.45;94972.41;4334849;32;20209;-63
2022/06/22 05:32:15;;;;;;;1.33;1.33;;;;;;;20.54;84.51;94974.25;4328223;32;20193;-62
2022/06/22 05:34:45;;;;;;;1.90;1.80;;;;;;;20.66;84.41;94972.44;4337798;32;20218;-62
2022/06/22 05:37:19;;;;;;;2.87;1.30;;;;;;;20.71;84.60;94969.44;4337813;32;20189;-63
2022/06/22 05:39:45;;;;;;;6.03;1.87;;;;;;;20.65;85.48;94963.59;4310990;32;20205;-63
2022/06/22 05:42:21;;;;;;;0.90;0.90;;;;;;;20.68;84.94;94954.78;4345602;32;20207;-63
2022/06/22 05:44:46;;;;;;;1.83;1.33;;;;;;;20.81;84.13;94947.97;4343827;32;20185;-63
2022/06/22 05:47:27;;;;;;;0.60;0.60;;;;;;;20.90;83.12;94945.78;4343172;32;20204;-63
2022/06/22 05:50:05;;;;;;;6.23;2.60;;;;;;;20.88;83.36;94942.69;4334154;32;20223;-64
2022/06/22 05:52:48;;;;;;;1.60;1.50;;;;;;;20.93;83.51;94936.19;4334258;32;20193;-63
2022/06/22 05:55:37;;;;;;;3.90;2.37;;;;;;;20.98;83.78;94941.25;4316342;32;20246;-63
2022/06/22 05:58:27;;;;;;;1.53;1.30;;;;;;;21.02;83.73;94941.28;4338942;32;20207;-64
2022/06/22 06:01:33;;;;;;;1.10;1.10;;;;;;;20.99;84.37;94940.09;4307280;32;20197;-63
2022/06/22 06:04:10;;;;;;;3.23;1.83;;;;;;;21.09;83.35;94938.66;4286651;33;20198;-63
2022/06/22 06:06:41;;;;;;;3.97;1.77;;;;;;;21.21;82.09;94939.19;4312082;33;20193;-63
2022/06/22 06:09:16;;;;;;;1.47;1.37;;;;;;;21.21;82.13;94936.50;4295193;33;20187;-63
2022/06/22 06:11:48;;;;;;;2.07;1.97;;;;;;;21.31;82.74;94945.88;4276201;33;20264;-63
2022/06/22 06:14:40;;;;;;;2.00;1.00;;;;;;;21.42;82.81;94944.03;4307292;33;20335;-64
2022/06/22 06:17:14;;;;;;;5.30;2.43;;;;;;;21.45;82.34;94948.69;4298936;33;20195;-58
2022/06/22 06:19:52;;;;;;;7.10;3.00;;;;;;;21.54;79.39;94951.09;4307836;32;20251;-58
2022/06/22 06:22:22;;;;;;;1.90;1.80;;;;;;;21.67;78.15;94955.06;4311740;33;20255;-58
2022/06/22 06:28:05;;;;;;;1.50;1.40;;;;;;;21.98;76.79;94982.72;4333189;32;20207;-58
2022/06/22 06:30:48;;;;;;;0.60;0.60;;;;;;;22.04;76.44;94983.94;4336720;32;20220;-58
2022/06/22 06:33:31;;;;;;;0.57;0.57;;;;;;;22.16;76.12;94975.53;4299706;32;20201;-58
2022/06/22 06:36:20;;;;;;;4.63;1.30;;;;;;;22.19;75.70;94985.59;4341874;32;20212;-59
2022/06/22 06:38:51;;;;;;;0.90;0.90;;;;;;;22.17;76.49;94994.09;4328906;32;20205;-58
2022/06/22 06:41:28;;;;;;;2.63;0.80;;;;;;;22.28;76.27;94996.84;4329846;32;20236;-57
2022/06/22 06:43:59;;;;;;;1.80;1.10;;;;;;;22.24;75.71;95001.44;4330341;32;20209;-58
2022/06/22 06:46:39;;;;;;;0.80;0.80;;;;;;;22.32;75.22;95005.75;4331610;32;20200;-58
2022/06/22 06:49:25;;;;;;;1.40;1.30;;;;;;;22.29;75.64;95003.81;4331401;32;20217;-61
2022/06/22 06:52:01;;;;;;;0.93;0.90;;;;;;;22.24;77.00;95004.94;4313555;32;20249;-63
2022/06/22 06:54:42;;;;;;;1.23;1.13;;;;;;;22.00;79.02;94999.34;4331434;32;20197;-62
2022/06/22 06:57:18;;;;;;;1.60;1.50;;;;;;;21.95;78.85;94993.13;4307068;32;20291;-63
2022/06/22 06:59:56;;;;;;;0.90;0.87;;;;;;;21.83;80.11;94990.69;4338773;32;20193;-64
2022/06/22 07:02:43;;;;;;;1.03;0.87;;;;;;;21.68;79.07;94983.63;4302617;32;20262;-62
2022/06/22 07:05:18;;;;;;;2.53;0.70;;;;;;;21.67;79.85;94987.47;4324495;32;20245;-61
2022/06/22 07:08:17;;;;;;;0.90;0.90;;;;;;;21.53;81.22;94987.34;4324220;32;20262;-62
2022/06/22 07:11:10;;;;;;;0.87;0.87;;;;;;;21.48;80.00;94990.38;4328006;32;20207;-62
2022/06/22 07:13:54;;;;;;;0.50;0.50;;;;;;;21.54;80.40;94988.88;4322211;32;20198;-64
2022/06/22 07:16:32;;;;;;;1.83;1.37;;;;;;;21.54;81.02;94991.59;4337209;32;20278;-62
2022/06/22 07:19:20;;;;;;;1.03;0.93;;;;;;;21.60;81.17;95003.63;4351301;32;20197;-61
2022/06/22 07:22:13;;;;;;;0.60;0.60;;;;;;;21.54;80.76;94999.69;4337194;32;20232;-62
2022/06/22 07:24:58;;;;;;;1.07;1.07;;;;;;;21.63;80.12;94994.75;4344566;32;20194;-62
2022/06/22 07:27:49;;;;;;;3.50;1.33;;;;;;;21.65;79.94;94999.78;4307507;32;20252;-62
2022/06/22 07:30:46;;;;;;;1.30;1.27;;;;;;;21.64;80.47;95003.63;4338794;32;20271;-63
2022/06/22 07:33:24;;;;;;;0.90;0.90;;;;;;;21.69;80.04;95011.41;4334827;32;20201;-62
2022/06/22 07:35:52;;;;;;;1.47;1.33;;;;;;;21.70;81.05;95013.72;4335576;32;20267;-64
2022/06/22 07:38:43;;;;;;;3.30;1.30;;;;;;;21.79;80.02;95027.72;4341261;32;20201;-61
2022/06/22 07:41:23;;;;;;;1.20;1.10;;;;;;;21.74;79.15;95028.03;4341696;32;20239;-62
2022/06/22 07:44:16;;;;;;;1.03;1.00;;;;;;;21.73;79.60;95033.81;4335740;32;20261;-65
2022/06/22 07:47:19;;;;;;;0.60;0.60;;;;;;;21.76;79.11;95033.06;4342853;32;20264;-64
2022/06/22 07:49:55;;;;;;;2.17;1.40;;;;;;;21.63;78.99;95029.84;4334385;32;20205;-61
2022/06/22 07:52:32;;;;;;;5.03;1.77;;;;;;;21.68;79.68;95021.41;4334074;32;20279;-62
2022/06/22 07:55:34;;;;;;;0.90;0.90;;;;;;;21.62;80.61;95020.97;4340478;32;20197;-62
2022/06/22 07:58:36;;;;;;;0.80;0.80;;;;;;;21.76;80.71;95017.66;4312106;32;20247;-62
2022/06/22 08:01:12;;;;;;;1.30;1.30;;;;;;;21.74;79.85;95025.34;4337965;32;20211;-62
2022/06/22 08:04:19;;;;;;;4.60;4.30;;;;;;;21.85;79.92;95031.59;4344821;32;20253;-61
2022/06/22 08:07:00;;;;;;;1.50;1.50;;;;;;;21.95;78.49;95013.94;4294015;32;20202;-61
2022/06/22 08:09:41;;;;;;;1.93;1.83;;;;;;;21.88;78.65;95028.16;4289125;33;20201;-62
2022/06/22 08:12:56;;;;;;;1.43;1.33;;;;;;;21.97;78.13;95038.66;4282343;33;20235;-60
2022/06/22 08:15:25;;;;;;;3.80;1.13;;;;;;;21.82;80.14;95037.75;4302265;33;20197;-61
2022/06/22 08:17:56;;;;;;;3.60;1.93;;;;;;;21.94;80.25;95039.41;4319940;32;20272;-61
2022/06/22 08:20:30;;;;;;;1.90;1.20;;;;;;;22.02;80.49;95035.66;4323403;32;20228;-61
2022/06/22 08:23:04;;;;;;;3.70;1.70;;;;;;;22.04;80.98;95024.47;4303638;33;20260;-63
2022/06/22 08:25:36;;;;;;;2.67;1.50;;;;;;;22.08;81.24;95038.78;4312509;33;20275;-63
2022/06/22 08:28:04;;;;;;;1.17;1.07;;;;;;;22.03;81.76;95041.84;4328397;32;20190;-60
2022/06/22 08:30:32;;;;;;;1.47;1.33;;;;;;;22.04;80.25;95037.97;4326123;32;20193;-61
2022/06/22 08:33:07;;;;;;;0.97;0.97;;;;;;;22.04;80.92;95027.94;4309803;32;20205;-61
2022/06/22 08:35:42;;;;;;;1.80;1.27;;;;;;;22.03;80.77;95036.44;4310903;33;20184;-61
2022/06/22 08:38:26;;;;;;;7.93;1.93;;;;;;;22.04;81.82;95038.75;4311707;33;20256;-61
2022/06/22 08:41:29;;;;;;;2.53;1.63;;;;;;;22.04;81.37;95044.16;4316561;32;20276;-61
2022/06/22 08:44:39;;;;;;;0.80;0.77;;;;;;;21.95;80.77;95044.44;4321137;32;20189;-61
2022/06/22 08:47:26;;;;;;;1.50;1.03;;;;;;;21.98;79.49;95050.25;4325175;33;20197;-60
2022/06/22 08:50:41;;;;;;;1.13;1.13;;;;;;;21.92;79.79;95047.88;4332198;32;20212;-62
2022/06/22 08:53:45;;;;;;;1.30;1.20;;;;;;;21.92;80.63;95050.59;4272771;33;20216;-62
2022/06/22 08:56:40;;;;;;;1.73;1.63;;;;;;;22.03;80.53;95068.88;4323093;33;20237;-63
2022/06/22 08:59:23;;;;;;;0.63;0.63;;;;;;;22.04;81.29;95070.41;4292160;32;20264;-63
2022/06/22 09:02:10;;;;;;;1.50;1.20;;;;;;;22.05;82.58;95063.84;4317688;33;20189;-63
2022/06/22 09:05:14;;;;;;;1.50;0.90;;;;;;;22.04;82.18;95063.06;4302506;33;20205;-62
2022/06/22 09:08:04;;;;;;;2.57;1.50;;;;;;;22.13;82.84;95068.16;4331762;32;20181;-62
2022/06/22 09:11:08;;;;;;;0.70;0.70;;;;;;;22.18;82.14;95070.53;4331918;32;20190;-61
2022/06/22 09:13:50;;;;;;;1.10;1.10;;;;;;;22.33;81.34;95077.59;4302809;32;20272;-61
2022/06/22 09:16:51;;;;;;;1.00;1.00;;;;;;;22.37;80.82;95073.00;4336752;32;20204;-61
2022/06/22 09:19:53;;;;;;;0.93;0.93;;;;;;;22.39;79.15;95065.31;4316627;32;20191;-62
2022/06/22 09:22:53;;;;;;;0.90;0.90;;;;;;;22.32;79.84;95059.84;4288184;33;20232;-61
2022/06/22 09:25:38;;;;;;;2.13;1.93;;;;;;;22.26;81.22;95077.53;4328064;32;20237;-62
2022/06/22 09:28:10;;;;;;;1.07;1.07;;;;;;;22.30;79.27;95067.53;4337154;32;20197;-62
2022/06/22 09:31:18;;;;;;;2.50;2.27;;;;;;;22.35;79.11;95061.78;4311059;32;20201;-61
2022/06/22 09:33:59;;;;;;;1.13;1.13;;;;;;;22.35;79.10;95050.19;4331298;32;20198;-61
2022/06/22 09:36:30;;;;;;;1.07;1.07;;;;;;;22.34;79.20;95049.41;4339227;32;20248;-62
2022/06/22 09:39:22;;;;;;;0.57;0.57;;;;;;;22.35;79.17;95047.50;4327683;32;20186;-61
2022/06/22 09:42:06;;;;;;;0.93;0.93;;;;;;;22.38;79.39;95038.63;4315333;33;20193;-61
2022/06/22 09:45:12;;;;;;;1.73;1.30;;;;;;;22.32;79.49;95042.84;4337947;32;20216;-62
2022/06/22 09:48:10;;;;;;;1.23;1.23;;;;;;;22.39;79.13;95043.66;4316012;32;20232;-61
2022/06/22 09:51:13;;;;;;;0.97;0.97;;;;;;;22.43;79.58;95039.06;4337674;32;20228;-61
2022/06/22 09:56:19;;;;;;;0.57;0.57;;;;;;;22.44;79.55;95042.56;4284977;33;20233;-62
2022/06/22 09:57:38;;;;;;;1.60;1.50;;;;;;;22.42;80.17;95042.94;4280170;33;20311;-62
2022/06/22 10:00:17;;;;;;;0.93;0.93;;;;;;;22.44;80.57;95039.84;4289045;33;20198;-62
2022/06/22 10:03:23;;;;;;;1.67;1.40;;;;;;;22.40;80.40;95039.81;4273913;33;20198;-63
2022/06/22 10:06:13;;;;;;;2.63;1.60;;;;;;;22.30;80.92;95029.69;4291218;33;20259;-62
2022/06/22 10:09:31;;;;;;;1.23;1.23;;;;;;;22.38;80.22;95036.72;4273670;33;20199;-62
2022/06/22 10:12:33;;;;;;;1.70;1.60;;;;;;;22.42;80.90;95031.34;4235688;33;20254;-62
2022/06/22 10:15:55;;;;;;;11.27;1.80;;;;;;;22.55;80.22;95033.34;4265931;33;20205;-63
2022/06/22 10:18:52;;;;;;;3.13;2.93;;;;;;;22.62;80.04;95028.00;4215322;33;20318;-63
2022/06/22 10:21:38;;;;;;;2.20;2.00;;;;;;;22.73;79.46;95029.97;4232525;33;20283;-63
2022/06/22 10:24:16;;;;;;;1.47;1.47;;;;;;;22.75;79.40;95025.72;4222357;33;20271;-62
2022/06/22 10:27:17;;;;;;;1.23;1.23;;;;;;;22.78;79.05;95032.34;4275135;33;20258;-62
2022/06/22 10:30:11;;;;;;;2.53;1.73;;;;;;;22.75;79.61;95035.78;4264584;33;20210;-63
2022/06/22 10:33:10;;;;;;;1.20;1.20;;;;;;;22.85;79.18;95043.22;4254276;33;20191;-63
2022/06/22 10:36:14;;;;;;;3.30;2.13;;;;;;;22.97;78.47;95048.31;4266713;33;20191;-62
2022/06/22 10:39:16;;;;;;;4.77;1.30;;;;;;;23.02;79.05;95049.88;4279413;33;20199;-62
2022/06/22 10:45:34;;;;;;;2.00;1.90;;;;;;;23.07;78.93;95069.22;4271881;32;20295;-62
2022/06/22 10:48:33;;;;;;;1.37;1.33;;;;;;;23.10;78.45;95064.97;4339918;32;20224;-61
2022/06/22 10:51:33;;;;;;;1.23;1.13;;;;;;;23.05;78.84;95066.12;4314629;32;20245;-62
2022/06/22 10:54:38;;;;;;;3.70;1.53;;;;;;;23.12;79.13;95063.44;4301510;32;20189;-62
2022/06/22 10:57:17;;;;;;;1.60;1.50;;;;;;;23.03;79.08;95060.31;4302409;32;20189;-62
2022/06/22 11:00:14;;;;;;;1.80;1.77;;;;;;;22.96;79.58;95054.87;4326077;32;20193;-62
2022/06/22 11:03:01;;;;;;;2.27;2.17;;;;;;;22.72;81.21;95060.88;4324332;32;20264;-58
2022/06/22 11:06:05;;;;;;;0.40;0.40;;;;;;;22.63;78.86;95056.59;4338478;32;20211;-59
2022/06/22 11:09:02;;;;;;;1.57;1.03;;;;;;;22.59;77.59;95055.00;4285412;32;20242;-58
2022/06/22 11:12:16;;;;;;;1.30;1.20;;;;;;;22.54;79.99;95049.94;4321172;32;20197;-59
2022/06/22 11:15:11;;;;;;;1.53;1.53;;;;;;;22.53;78.94;95053.81;4326495;32;20197;-54
2022/06/22 11:18:14;;;;;;;1.63;1.53;;;;;;;22.45;77.80;95050.25;4333261;32;20287;-58
2022/06/22 11:21:33;;;;;;;3.17;1.43;;;;;;;22.48;78.81;95057.62;4342973;32;20243;-58
2022/06/22 11:24:36;;;;;;;1.17;1.07;;;;;;;22.47;79.20;95064.19;4281268;33;20202;-56
2022/06/22 11:31:12;;;;;;;5.87;2.10;;;;;;;22.50;77.82;95073.47;4238572;33;20215;-57
2022/06/22 11:34:16;;;;;;;1.90;1.60;;;;;;;22.51;79.05;95067.69;4226022;33;20198;-55
2022/06/22 11:37:17;;;;;;;1.27;1.27;;;;;;;22.55;78.77;95073.12;4272938;33;20217;-58
2022/06/22 11:40:28;;;;;;;0.93;0.93;;;;;;;22.54;80.67;95066.94;4274580;33;20257;-59
2022/06/22 11:43:27;;;;;;;1.17;1.17;;;;;;;22.60;78.44;95070.09;4153049;34;20307;-59
2022/06/22 11:46:15;;;;;;;1.10;1.10;;;;;;;22.61;78.65;95083.22;4200912;33;20383;-59
2022/06/22 11:49:33;;;;;;;1.20;1.20;;;;;;;22.61;79.25;95083.22;4191024;33;20208;-59
2022/06/22 11:52:46;;;;;;;1.27;1.27;;;;;;;22.61;80.01;95082.47;4141984;34;20194;-57
2022/06/22 11:55:43;;;;;;;1.37;1.37;;;;;;;22.58;79.64;95078.56;4212121;33;20212;-59
2022/06/22 11:58:25;;;;;;;1.13;0.77;;;;;;;22.66;78.86;95076.69;4298822;32;20189;-58
2022/06/22 12:01:46;;;;;;;1.93;1.83;;;;;;;22.75;78.87;95079.84;4320025;32;20196;-59
2022/06/22 12:04:45;;;;;;;1.17;1.17;;;;;;;22.71;79.25;95080.97;4293066;33;20198;-59
2022/06/22 12:08:08;;;;;;;2.43;2.17;;;;;;;22.75;78.77;95079.06;4308866;33;20208;-56
2022/06/22 12:10:59;;;;;;;1.80;1.70;;;;;;;22.70;80.61;95080.19;4256269;33;20192;-58
2022/06/22 12:17:49;;;;;;;6.83;1.50;;;;;;;22.77;79.46;95084.87;4221432;33;20275;-58
2022/06/22 12:20:40;;;;;;;1.27;1.27;;;;;;;22.86;78.48;95085.34;4329789;32;20202;-59
2022/06/22 12:23:36;;;;;;;1.83;1.07;;;;;;;22.86;77.75;95093.47;4342564;32;20208;-58
2022/06/22 12:26:46;;;;;;;1.47;1.37;;;;;;;22.72;77.95;95094.13;4322529;32;20225;-57
2022/06/22 12:29:28;;;;;;;1.33;1.23;;;;;;;22.81;77.72;95096.53;4311580;32;20197;-58
2022/06/22 12:32:13;;;;;;;1.60;1.50;;;;;;;22.83;77.43;95094.22;4330789;32;20205;-56
2022/06/22 12:35:17;;;;;;;1.67;1.57;;;;;;;22.81;77.04;95094.59;4335336;32;20194;-55
2022/06/22 12:38:14;;;;;;;1.23;1.13;;;;;;;22.80;77.38;95093.03;4301696;32;20194;-58
2022/06/22 12:41:14;;;;;;;1.47;1.43;;;;;;;22.82;76.88;95079.16;4328019;32;20243;-57
2022/06/22 12:44:18;;;;;;;1.40;1.30;;;;;;;22.86;75.89;95083.41;4339960;32;20266;-59
2022/06/22 12:47:21;;;;;;;1.13;1.13;;;;;;;22.93;75.21;95082.69;4291991;32;20260;-58
2022/06/22 12:50:09;;;;;;;1.67;1.57;;;;;;;22.93;74.56;95077.25;4315758;32;20205;-58
2022/06/22 12:52:59;;;;;;;0.93;0.80;;;;;;;22.93;74.38;95074.56;4318552;32;20206;-59
2022/06/22 12:55:39;;;;;;;0.90;0.90;;;;;;;22.97;74.53;95083.47;4335396;32;20196;-58
2022/06/22 12:58:17;;;;;;;1.20;1.20;;;;;;;22.97;74.33;95080.78;4319525;32;20193;-58
2022/06/22 13:00:46;;;;;;;1.30;1.20;;;;;;;22.90;74.62;95073.38;4308360;32;20243;-59
2022/06/22 13:03:29;;;;;;;2.07;1.83;;;;;;;22.93;74.30;95074.56;4334689;32;20224;-59
2022/06/22 13:05:56;;;;;;;3.10;1.97;;;;;;;22.88;75.12;95066.78;4307304;33;20204;-60
2022/06/22 13:08:29;;;;;;;1.47;1.47;;;;;;;22.91;74.68;95066.03;4340396;32;20254;-59
2022/06/22 13:11:14;;;;;;;2.30;1.80;;;;;;;22.85;75.11;95067.56;4318177;32;20199;-57
2022/06/22 13:13:52;;;;;;;1.53;1.47;;;;;;;22.87;73.85;95068.72;4316039;32;20240;-55
2022/06/22 13:17:00;;;;;;;2.57;0.93;;;;;;;22.93;70.72;95072.63;4330698;32;20199;-57
2022/06/22 13:20:06;;;;;;;0.87;0.73;;;;;;;22.90;70.01;95073.38;4322638;32;20346;-58
2022/06/22 13:22:55;;;;;;;1.30;1.27;;;;;;;22.89;70.61;95071.06;4335164;32;20197;-58